Pleasantville, PA (16341)

12:37 AM EDT on May 23, 2015 (GMT -0400)
North Side | | Change Station
CLOSE
Current Station
Personal Weather Station
Location: Oil City, PA
Elevation: 1040 ft
Nearby Weather Stations
Active Advisory: Freeze Warning

Elev 1040 ft 41.44 °N, 79.71 °W | Updated 12 seconds ago

Clear
Clear
35.6 °F
Feels Like 36 °F
N
0.0
Wind Variable Wind from NW
Gusts 0.0 mph

Today
High -- | Low -- °F
--% Chance of Precip.
Yesterday
High -- | Low -- °F
Precip. -- in
5:52 AM 8:38 PM
Waxing Crescent, 26% visible
Pressure 30.33 in
Visibility 10.0 miles
Clouds Clear
Windchill 36 °F
Dew Point 30 °F
Humidity 78%
Rainfall 0.00 in
Snow Depth Not available.
UV 0.0 out of 12
Pollen 8.60 out of 12
Air Quality Not available.
Flu Activity Sporadic
METAR KFKL 230415Z AUTO 23005KT 10SM CLR 03/M05 A3033 RMK AO1

More Conditions Fewer Conditions

Pressure 30.33 in
Visibility 10.0 miles
Clouds Clear
Windchill 36 °F
Dew Point 30 °F
Humidity 78%
Rainfall 0.00 in
Snow Depth Not available.
UV 0.0 out of 12
Pollen 8.60 out of 12
Air Quality Not available.
Flu Activity Sporadic
METAR KFKL 230415Z AUTO 23005KT 10SM CLR 03/M05 A3033 RMK AO1

More Conditions Fewer Conditions

10-Day Weather Forecast

Almanac

Astronomy

May. 23, 2015 Rise Set
Actual Time
Civil Twilight
Nautical Twilight
Astronomical Twilight
Moon
Length of Visible Light
Length of Day
Tomorrow will be .
, % of the Moon is Illuminated

Today's Extremes

State Highs State Lows

Community

WunderPhotos

Upload Photos

1,823,386 photos uploaded!

WunderBlogs® & News

Nearby

Air Quality

  Air Quality AQ Index Pollutant
Not available.

Snow Depth

Station Depth Elevation

Earthquake Activity

City Distance Mag. Time & Date
Minimum magnitude displayed is 2.5.

Coastal Water Temperatures

Place Temperature

Stations

Nearby Weather Stations

Station Location Temp. Windchill Dew Point Humidity Wind Precip. Elev Updated Type
                   
Freeze Warning
Statement as of 10:03 PM EDT on May 22, 2015

... Freeze warning remains in effect until 9 am EDT Saturday...

* temperatures... upper 20s to lower 30s.

* Timing... coldest minimum temperatures will occur before
sunrise Saturday morning.

* Impacts... unprotected outdoor plants will likely be damaged or
killed.

Precautionary/preparedness actions...

A freeze warning means sub-freezing temperatures are imminent or
highly likely. These conditions will kill crops and other
sensitive vegetation.